sensor_id;sensor_type;location;lat;lon;timestamp;pressure;altitude;pressure_sealevel;temperature;humidity
22743;BME280;11538;48.884;8.696;2023-07-13T00:02:23;98763.78;;;22.43;55.61
22743;BME280;11538;48.884;8.696;2023-07-13T00:04:50;98760.88;;;22.32;56.87
22743;BME280;11538;48.884;8.696;2023-07-13T00:07:17;98756.88;;;22.23;58.56
22743;BME280;11538;48.884;8.696;2023-07-13T00:09:47;98761.00;;;22.02;60.22
22743;BME280;11538;48.884;8.696;2023-07-13T00:12:29;98759.31;;;21.94;59.49
22743;BME280;11538;48.884;8.696;2023-07-13T00:14:59;98752.16;;;21.89;60.59
22743;BME280;11538;48.884;8.696;2023-07-13T00:17:28;98746.38;;;21.67;62.05
22743;BME280;11538;48.884;8.696;2023-07-13T00:19:56;98745.84;;;21.58;62.48
22743;BME280;11538;48.884;8.696;2023-07-13T00:22:24;98752.34;;;21.42;63.22
22743;BME280;11538;48.884;8.696;2023-07-13T00:24:53;98763.13;;;21.24;64.02
22743;BME280;11538;48.884;8.696;2023-07-13T00:27:24;98757.13;;;21.18;63.88
22743;BME280;11538;48.884;8.696;2023-07-13T00:29:53;98760.63;;;21.15;64.14
22743;BME280;11538;48.884;8.696;2023-07-13T00:32:20;98749.19;;;21.13;64.58
22743;BME280;11538;48.884;8.696;2023-07-13T00:34:47;98745.25;;;21.14;65.85
22743;BME280;11538;48.884;8.696;2023-07-13T00:37:14;98740.38;;;21.04;67.19
22743;BME280;11538;48.884;8.696;2023-07-13T00:39:41;98750.97;;;21.02;68.04
22743;BME280;11538;48.884;8.696;2023-07-13T00:42:08;98742.88;;;20.86;68.00
22743;BME280;11538;48.884;8.696;2023-07-13T00:44:35;98746.31;;;20.79;68.32
22743;BME280;11538;48.884;8.696;2023-07-13T00:47:02;98739.75;;;20.64;68.49
22743;BME280;11538;48.884;8.696;2023-07-13T00:49:32;98737.66;;;20.57;69.38
22743;BME280;11538;48.884;8.696;2023-07-13T00:52:08;98737.66;;;20.57;69.12
22743;BME280;11538;48.884;8.696;2023-07-13T00:54:45;98725.78;;;20.53;69.55
22743;BME280;11538;48.884;8.696;2023-07-13T00:57:18;98732.03;;;20.50;70.38
22743;BME280;11538;48.884;8.696;2023-07-13T00:59:55;98736.25;;;20.44;70.50
22743;BME280;11538;48.884;8.696;2023-07-13T01:02:25;98734.69;;;20.43;71.05
22743;BME280;11538;48.884;8.696;2023-07-13T01:04:52;98723.84;;;20.30;71.72
22743;BME280;11538;48.884;8.696;2023-07-13T01:07:19;98724.44;;;20.20;72.15
22743;BME280;11538;48.884;8.696;2023-07-13T01:09:46;98730.59;;;20.13;73.11
22743;BME280;11538;48.884;8.696;2023-07-13T01:12:13;98731.59;;;20.01;73.93
22743;BME280;11538;48.884;8.696;2023-07-13T01:14:40;98720.06;;;19.96;74.26
22743;BME280;11538;48.884;8.696;2023-07-13T01:17:10;98732.38;;;20.02;73.75
22743;BME280;11538;48.884;8.696;2023-07-13T01:19:45;98733.66;;;20.08;72.75
22743;BME280;11538;48.884;8.696;2023-07-13T01:22:16;98733.16;;;20.22;71.45
22743;BME280;11538;48.884;8.696;2023-07-13T01:24:48;98737.66;;;20.11;71.43
22743;BME280;11538;48.884;8.696;2023-07-13T01:27:21;98735.56;;;20.04;71.61
22743;BME280;11538;48.884;8.696;2023-07-13T01:29:48;98721.75;;;20.00;71.65
22743;BME280;11538;48.884;8.696;2023-07-13T01:32:21;98730.22;;;19.92;72.16
22743;BME280;11538;48.884;8.696;2023-07-13T01:34:53;98735.19;;;19.86;71.95
22743;BME280;11538;48.884;8.696;2023-07-13T01:37:25;98738.47;;;19.92;71.84
22743;BME280;11538;48.884;8.696;2023-07-13T01:39:52;98732.53;;;19.90;71.81
22743;BME280;11538;48.884;8.696;2023-07-13T01:42:19;98737.44;;;19.80;72.08
22743;BME280;11538;48.884;8.696;2023-07-13T01:44:46;98734.38;;;19.85;72.00
22743;BME280;11538;48.884;8.696;2023-07-13T01:47:16;98731.38;;;19.91;72.25
22743;BME280;11538;48.884;8.696;2023-07-13T01:49:43;98740.25;;;19.84;72.83
22743;BME280;11538;48.884;8.696;2023-07-13T01:52:12;98735.47;;;19.81;73.04
22743;BME280;11538;48.884;8.696;2023-07-13T01:54:39;98739.63;;;19.71;72.99
22743;BME280;11538;48.884;8.696;2023-07-13T01:57:06;98739.38;;;19.60;72.96
22743;BME280;11538;48.884;8.696;2023-07-13T01:59:33;98739.09;;;19.46;73.33
22743;BME280;11538;48.884;8.696;2023-07-13T02:02:01;98738.22;;;19.41;73.10
22743;BME280;11538;48.884;8.696;2023-07-13T02:04:28;98745.31;;;19.42;73.14
22743;BME280;11538;48.884;8.696;2023-07-13T02:06:55;98741.50;;;19.47;72.63
22743;BME280;11538;48.884;8.696;2023-07-13T02:09:22;98737.00;;;19.58;72.66
22743;BME280;11538;48.884;8.696;2023-07-13T02:11:49;98736.34;;;19.65;73.73
22743;BME280;11538;48.884;8.696;2023-07-13T02:14:16;98723.03;;;19.48;75.32
22743;BME280;11538;48.884;8.696;2023-07-13T02:16:43;98731.34;;;19.32;75.38
22743;BME280;11538;48.884;8.696;2023-07-13T02:19:10;98736.59;;;19.21;75.28
22743;BME280;11538;48.884;8.696;2023-07-13T02:21:38;98736.44;;;19.13;75.54
22743;BME280;11538;48.884;8.696;2023-07-13T02:24:05;98731.94;;;19.05;75.72
22743;BME280;11538;48.884;8.696;2023-07-13T02:26:32;98729.97;;;19.06;75.50
22743;BME280;11538;48.884;8.696;2023-07-13T02:28:59;98730.84;;;19.10;75.30
22743;BME280;11538;48.884;8.696;2023-07-13T02:31:26;98730.34;;;19.04;75.29
22743;BME280;11538;48.884;8.696;2023-07-13T02:33:53;98735.69;;;18.97;75.74
22743;BME280;11538;48.884;8.696;2023-07-13T02:36:20;98740.09;;;18.85;76.07
22743;BME280;11538;48.884;8.696;2023-07-13T02:38:50;98741.81;;;18.74;76.47
22743;BME280;11538;48.884;8.696;2023-07-13T02:41:16;98741.00;;;18.74;76.46
22743;BME280;11538;48.884;8.696;2023-07-13T02:43:44;98747.13;;;18.67;76.88
22743;BME280;11538;48.884;8.696;2023-07-13T02:46:11;98746.56;;;18.61;77.40
22743;BME280;11538;48.884;8.696;2023-07-13T02:48:39;98743.56;;;18.82;76.80
22743;BME280;11538;48.884;8.696;2023-07-13T02:51:06;98758.34;;;18.94;76.25
22743;BME280;11538;48.884;8.696;2023-07-13T02:53:34;98758.56;;;19.01;76.32
22743;BME280;11538;48.884;8.696;2023-07-13T02:56:04;98753.75;;;18.82;75.70
22743;BME280;11538;48.884;8.696;2023-07-13T02:58:31;98749.25;;;18.58;77.38
22743;BME280;11538;48.884;8.696;2023-07-13T03:01:06;98754.91;;;18.49;78.20
22743;BME280;11538;48.884;8.696;2023-07-13T03:03:33;98760.91;;;18.54;78.26
22743;BME280;11538;48.884;8.696;2023-07-13T03:06:03;98764.63;;;18.46;78.25
22743;BME280;11538;48.884;8.696;2023-07-13T03:08:31;98753.22;;;18.44;79.13
22743;BME280;11538;48.884;8.696;2023-07-13T03:11:01;98754.81;;;18.45;78.37
22743;BME280;11538;48.884;8.696;2023-07-13T03:13:28;98764.75;;;18.50;78.22
22743;BME280;11538;48.884;8.696;2023-07-13T03:15:55;98767.66;;;18.57;78.06
22743;BME280;11538;48.884;8.696;2023-07-13T03:18:23;98763.66;;;18.54;77.40
22743;BME280;11538;48.884;8.696;2023-07-13T03:20:53;98762.06;;;18.53;77.63
22743;BME280;11538;48.884;8.696;2023-07-13T03:23:21;98770.31;;;18.53;77.99
22743;BME280;11538;48.884;8.696;2023-07-13T03:25:48;98764.56;;;18.42;77.90
22743;BME280;11538;48.884;8.696;2023-07-13T03:28:15;98766.41;;;18.38;78.18
22743;BME280;11538;48.884;8.696;2023-07-13T03:30:42;98773.94;;;18.41;77.70
22743;BME280;11538;48.884;8.696;2023-07-13T03:33:09;98768.09;;;18.43;78.13
22743;BME280;11538;48.884;8.696;2023-07-13T03:35:40;98777.66;;;18.49;79.05
22743;BME280;11538;48.884;8.696;2023-07-13T03:38:09;98781.56;;;18.48;78.68
22743;BME280;11538;48.884;8.696;2023-07-13T03:40:36;98785.81;;;18.46;78.76
22743;BME280;11538;48.884;8.696;2023-07-13T03:43:03;98778.63;;;18.41;79.05
22743;BME280;11538;48.884;8.696;2023-07-13T03:45:30;98792.88;;;18.31;80.41
22743;BME280;11538;48.884;8.696;2023-07-13T03:47:57;98790.56;;;18.33;79.79
22743;BME280;11538;48.884;8.696;2023-07-13T03:50:24;98795.63;;;18.31;78.99
22743;BME280;11538;48.884;8.696;2023-07-13T03:52:51;98796.69;;;18.26;78.61
22743;BME280;11538;48.884;8.696;2023-07-13T03:55:18;98799.31;;;18.22;79.05
22743;BME280;11538;48.884;8.696;2023-07-13T03:57:45;98799.31;;;18.22;78.67
22743;BME280;11538;48.884;8.696;2023-07-13T04:00:12;98798.88;;;18.20;78.88
22743;BME280;11538;48.884;8.696;2023-07-13T04:02:39;98805.72;;;18.26;79.44
22743;BME280;11538;48.884;8.696;2023-07-13T04:05:07;98800.31;;;18.30;80.23
22743;BME280;11538;48.884;8.696;2023-07-13T04:07:34;98805.56;;;18.35;80.32
22743;BME280;11538;48.884;8.696;2023-07-13T04:10:01;98807.94;;;18.37;79.68
22743;BME280;11538;48.884;8.696;2023-07-13T04:12:28;98803.84;;;18.31;78.04
22743;BME280;11538;48.884;8.696;2023-07-13T04:14:57;98808.56;;;18.30;78.02
22743;BME280;11538;48.884;8.696;2023-07-13T04:17:23;98812.00;;;18.27;77.47
22743;BME280;11538;48.884;8.696;2023-07-13T04:19:53;98813.34;;;18.33;77.34
22743;BME280;11538;48.884;8.696;2023-07-13T04:22:20;98806.53;;;18.43;76.45
22743;BME280;11538;48.884;8.696;2023-07-13T04:24:48;98817.50;;;18.27;77.13
22743;BME280;11538;48.884;8.696;2023-07-13T04:27:16;98813.31;;;18.17;78.02
22743;BME280;11538;48.884;8.696;2023-07-13T04:29:43;98816.25;;;18.24;77.44
22743;BME280;11538;48.884;8.696;2023-07-13T04:32:10;98812.72;;;18.24;76.90
22743;BME280;11538;48.884;8.696;2023-07-13T04:34:38;98818.78;;;18.17;76.43
22743;BME280;11538;48.884;8.696;2023-07-13T04:37:05;98818.16;;;18.08;76.06
22743;BME280;11538;48.884;8.696;2023-07-13T04:39:32;98816.84;;;18.18;76.08
22743;BME280;11538;48.884;8.696;2023-07-13T04:41:59;98826.53;;;18.27;76.21
22743;BME280;11538;48.884;8.696;2023-07-13T04:44:26;98823.59;;;18.20;76.06
22743;BME280;11538;48.884;8.696;2023-07-13T04:46:53;98824.78;;;18.07;75.84
22743;BME280;11538;48.884;8.696;2023-07-13T04:49:20;98830.53;;;17.89;77.36
22743;BME280;11538;48.884;8.696;2023-07-13T04:51:47;98830.09;;;17.87;77.36
22743;BME280;11538;48.884;8.696;2023-07-13T04:54:14;98830.19;;;18.03;76.75
22743;BME280;11538;48.884;8.696;2023-07-13T04:56:41;98830.41;;;17.98;76.69
22743;BME280;11538;48.884;8.696;2023-07-13T04:59:08;98830.72;;;18.09;76.43
22743;BME280;11538;48.884;8.696;2023-07-13T05:01:35;98835.25;;;18.17;75.02
22743;BME280;11538;48.884;8.696;2023-07-13T05:04:02;98833.66;;;18.16;75.36
22743;BME280;11538;48.884;8.696;2023-07-13T05:06:29;98837.69;;;18.19;75.50
22743;BME280;11538;48.884;8.696;2023-07-13T05:08:57;98828.03;;;18.25;75.33
22743;BME280;11538;48.884;8.696;2023-07-13T05:11:24;98843.69;;;18.24;75.41
22743;BME280;11538;48.884;8.696;2023-07-13T05:13:51;98842.00;;;18.20;76.39
22743;BME280;11538;48.884;8.696;2023-07-13T05:16:19;98838.22;;;18.24;75.83
22743;BME280;11538;48.884;8.696;2023-07-13T05:18:46;98846.19;;;18.30;76.05
22743;BME280;11538;48.884;8.696;2023-07-13T05:21:13;98837.91;;;18.42;75.56
22743;BME280;11538;48.884;8.696;2023-07-13T05:23:40;98844.97;;;18.43;75.24
22743;BME280;11538;48.884;8.696;2023-07-13T05:26:10;98842.59;;;18.41;75.57
22743;BME280;11538;48.884;8.696;2023-07-13T05:28:38;98848.09;;;18.41;75.32
22743;BME280;11538;48.884;8.696;2023-07-13T05:31:07;98849.44;;;18.48;75.07
22743;BME280;11538;48.884;8.696;2023-07-13T05:33:36;98853.91;;;18.68;74.17
22743;BME280;11538;48.884;8.696;2023-07-13T05:36:03;98843.34;;;18.70;74.32
22743;BME280;11538;48.884;8.696;2023-07-13T05:38:30;98846.91;;;18.71;74.32
22743;BME280;11538;48.884;8.696;2023-07-13T05:40:57;98835.47;;;18.69;74.76
22743;BME280;11538;48.884;8.696;2023-07-13T05:43:24;98843.09;;;18.60;75.89
22743;BME280;11538;48.884;8.696;2023-07-13T05:45:56;98848.31;;;18.65;76.02
22743;BME280;11538;48.884;8.696;2023-07-13T05:48:24;98848.13;;;18.74;75.96
22743;BME280;11538;48.884;8.696;2023-07-13T05:50:50;98858.34;;;18.73;75.38
22743;BME280;11538;48.884;8.696;2023-07-13T05:53:18;98857.53;;;18.73;75.91
22743;BME280;11538;48.884;8.696;2023-07-13T05:55:46;98861.88;;;18.74;76.47
22743;BME280;11538;48.884;8.696;2023-07-13T05:58:18;98857.81;;;18.83;76.04
22743;BME280;11538;48.884;8.696;2023-07-13T06:00:47;98859.59;;;18.92;75.98
22743;BME280;11538;48.884;8.696;2023-07-13T06:03:15;98862.91;;;18.97;75.66
22743;BME280;11538;48.884;8.696;2023-07-13T06:05:42;98866.09;;;18.99;75.50
22743;BME280;11538;48.884;8.696;2023-07-13T06:08:09;98878.06;;;19.07;75.67
22743;BME280;11538;48.884;8.696;2023-07-13T06:10:37;98875.56;;;19.18;75.02
22743;BME280;11538;48.884;8.696;2023-07-13T06:13:04;98876.81;;;19.21;74.25
22743;BME280;11538;48.884;8.696;2023-07-13T06:15:32;98876.13;;;19.24;74.98
22743;BME280;11538;48.884;8.696;2023-07-13T06:18:00;98880.47;;;19.25;74.30
22743;BME280;11538;48.884;8.696;2023-07-13T06:20:27;98887.28;;;19.31;72.82
22743;BME280;11538;48.884;8.696;2023-07-13T06:22:54;98891.38;;;19.37;72.47
22743;BME280;11538;48.884;8.696;2023-07-13T06:25:21;98886.47;;;19.47;72.12
22743;BME280;11538;48.884;8.696;2023-07-13T06:27:48;98889.66;;;19.65;71.41
22743;BME280;11538;48.884;8.696;2023-07-13T06:30:15;98895.81;;;19.78;69.59
22743;BME280;11538;48.884;8.696;2023-07-13T06:32:42;98883.94;;;19.90;69.44
22743;BME280;11538;48.884;8.696;2023-07-13T06:35:09;98888.50;;;20.01;68.64
22743;BME280;11538;48.884;8.696;2023-07-13T06:37:39;98892.72;;;20.15;67.61
22743;BME280;11538;48.884;8.696;2023-07-13T06:40:07;98892.44;;;20.20;64.26
22743;BME280;11538;48.884;8.696;2023-07-13T06:42:34;98887.50;;;20.29;63.75
22743;BME280;11538;48.884;8.696;2023-07-13T06:45:01;98886.19;;;20.43;62.35
22743;BME280;11538;48.884;8.696;2023-07-13T06:47:28;98893.13;;;20.56;60.05
22743;BME280;11538;48.884;8.696;2023-07-13T06:50:00;98900.31;;;20.61;59.12
22743;BME280;11538;48.884;8.696;2023-07-13T06:52:27;98899.06;;;20.58;58.45
22743;BME280;11538;48.884;8.696;2023-07-13T06:54:54;98897.31;;;20.70;58.04
22743;BME280;11538;48.884;8.696;2023-07-13T06:57:21;98895.59;;;20.81;54.97
22743;BME280;11538;48.884;8.696;2023-07-13T06:59:48;98896.16;;;20.91;54.24
22743;BME280;11538;48.884;8.696;2023-07-13T07:02:14;98898.38;;;21.04;53.25
22743;BME280;11538;48.884;8.696;2023-07-13T07:04:41;98904.44;;;21.14;52.47
22743;BME280;11538;48.884;8.696;2023-07-13T07:07:08;98905.22;;;21.14;52.28
22743;BME280;11538;48.884;8.696;2023-07-13T07:09:35;98909.28;;;21.21;52.38
22743;BME280;11538;48.884;8.696;2023-07-13T07:12:03;98911.03;;;21.32;52.72
22743;BME280;11538;48.884;8.696;2023-07-13T07:14:31;98914.03;;;21.47;52.29
22743;BME280;11538;48.884;8.696;2023-07-13T07:16:58;98907.09;;;21.57;51.50
22743;BME280;11538;48.884;8.696;2023-07-13T07:19:28;98909.53;;;21.62;51.61
22743;BME280;11538;48.884;8.696;2023-07-13T07:21:56;98917.19;;;21.72;51.43
22743;BME280;11538;48.884;8.696;2023-07-13T07:24:22;98911.13;;;21.90;50.80
22743;BME280;11538;48.884;8.696;2023-07-13T07:26:49;98912.91;;;22.05;49.97
22743;BME280;11538;48.884;8.696;2023-07-13T07:29:19;98921.78;;;22.18;48.42
22743;BME280;11538;48.884;8.696;2023-07-13T07:31:49;98917.19;;;22.30;47.12
22743;BME280;11538;48.884;8.696;2023-07-13T07:34:32;98922.88;;;22.44;47.27
22743;BME280;11538;48.884;8.696;2023-07-13T07:37:01;98918.34;;;22.59;47.20
22743;BME280;11538;48.884;8.696;2023-07-13T07:39:31;98919.63;;;22.69;48.37
22743;BME280;11538;48.884;8.696;2023-07-13T07:41:58;98923.28;;;22.77;45.75
22743;BME280;11538;48.884;8.696;2023-07-13T07:44:25;98920.94;;;22.79;46.03
22743;BME280;11538;48.884;8.696;2023-07-13T07:46:53;98921.34;;;22.81;45.65
22743;BME280;11538;48.884;8.696;2023-07-13T07:49:21;98914.66;;;22.86;45.35
22743;BME280;11538;48.884;8.696;2023-07-13T07:51:48;98919.19;;;23.05;45.14
22743;BME280;11538;48.884;8.696;2023-07-13T07:54:15;98914.16;;;23.14;43.81
22743;BME280;11538;48.884;8.696;2023-07-13T07:56:53;98922.66;;;23.32;43.31
22743;BME280;11538;48.884;8.696;2023-07-13T07:59:23;98920.81;;;23.55;42.82
22743;BME280;11538;48.884;8.696;2023-07-13T08:01:55;98926.84;;;23.71;45.42
22743;BME280;11538;48.884;8.696;2023-07-13T08:04:25;98931.63;;;23.71;41.81
22743;BME280;11538;48.884;8.696;2023-07-13T08:06:55;98928.03;;;23.66;41.14
22743;BME280;11538;48.884;8.696;2023-07-13T08:09:24;98923.00;;;23.83;40.84
22743;BME280;11538;48.884;8.696;2023-07-13T08:11:52;98931.44;;;24.05;39.92
22743;BME280;11538;48.884;8.696;2023-07-13T08:14:22;98938.69;;;24.24;40.20
22743;BME280;11538;48.884;8.696;2023-07-13T08:16:49;98926.09;;;24.45;39.20
22743;BME280;11538;48.884;8.696;2023-07-13T08:19:16;98928.13;;;24.62;41.03
22743;BME280;11538;48.884;8.696;2023-07-13T08:21:43;98930.13;;;24.73;39.76
22743;BME280;11538;48.884;8.696;2023-07-13T08:24:10;98935.38;;;24.89;40.20
22743;BME280;11538;48.884;8.696;2023-07-13T08:26:37;98934.19;;;25.08;41.62
22743;BME280;11538;48.884;8.696;2023-07-13T08:29:04;98927.88;;;25.33;40.07
22743;BME280;11538;48.884;8.696;2023-07-13T08:31:31;98942.16;;;25.28;39.40
22743;BME280;11538;48.884;8.696;2023-07-13T08:33:58;98928.25;;;25.38;41.60
22743;BME280;11538;48.884;8.696;2023-07-13T08:36:26;98932.22;;;25.30;39.18
22743;BME280;11538;48.884;8.696;2023-07-13T08:38:53;98927.88;;;25.22;39.51
22743;BME280;11538;48.884;8.696;2023-07-13T08:41:21;98938.16;;;25.07;39.14
22743;BME280;11538;48.884;8.696;2023-07-13T08:43:53;98933.81;;;25.38;42.26
22743;BME280;11538;48.884;8.696;2023-07-13T08:46:37;98931.44;;;25.62;39.66
22743;BME280;11538;48.884;8.696;2023-07-13T08:49:19;98932.66;;;25.58;39.42
22743;BME280;11538;48.884;8.696;2023-07-13T08:52:04;98927.88;;;25.76;39.69
22743;BME280;11538;48.884;8.696;2023-07-13T08:54:38;98938.13;;;26.05;38.54
22743;BME280;11538;48.884;8.696;2023-07-13T08:57:17;98936.91;;;26.13;39.46
22743;BME280;11538;48.884;8.696;2023-07-13T08:59:44;98925.03;;;25.98;37.93
22743;BME280;11538;48.884;8.696;2023-07-13T09:02:55;98934.91;;;26.24;37.51
22743;BME280;11538;48.884;8.696;2023-07-13T09:05:38;98925.78;;;26.24;37.33
22743;BME280;11538;48.884;8.696;2023-07-13T09:11:58;98937.28;;;26.30;37.27
22743;BME280;11538;48.884;8.696;2023-07-13T09:14:49;98935.22;;;26.48;40.76
22743;BME280;11538;48.884;8.696;2023-07-13T09:17:35;98930.03;;;26.50;37.07
22743;BME280;11538;48.884;8.696;2023-07-13T09:20:18;98933.25;;;26.41;37.70
22743;BME280;11538;48.884;8.696;2023-07-13T09:22:50;98933.06;;;26.85;41.50
22743;BME280;11538;48.884;8.696;2023-07-13T09:25:29;98938.44;;;27.10;40.88
22743;BME280;11538;48.884;8.696;2023-07-13T09:28:13;98936.50;;;27.07;39.36
22743;BME280;11538;48.884;8.696;2023-07-13T09:33:46;98940.94;;;26.94;36.14
22743;BME280;11538;48.884;8.696;2023-07-13T09:36:31;98932.59;;;26.97;41.71
22743;BME280;11538;48.884;8.696;2023-07-13T09:39:30;98927.63;;;27.23;35.99
22743;BME280;11538;48.884;8.696;2023-07-13T09:42:18;98935.03;;;27.44;36.52
22743;BME280;11538;48.884;8.696;2023-07-13T09:44:59;98932.63;;;27.43;35.02
22743;BME280;11538;48.884;8.696;2023-07-13T09:47:30;98934.97;;;27.48;37.07
22743;BME280;11538;48.884;8.696;2023-07-13T09:50:06;98932.53;;;27.57;36.14
22743;BME280;11538;48.884;8.696;2023-07-13T09:52:48;98930.00;;;27.74;38.02
22743;BME280;11538;48.884;8.696;2023-07-13T09:55:37;98929.88;;;27.88;34.96
22743;BME280;11538;48.884;8.696;2023-07-13T09:58:18;98933.50;;;27.85;34.46
22743;BME280;11538;48.884;8.696;2023-07-13T10:00:58;98932.16;;;27.97;34.09
22743;BME280;11538;48.884;8.696;2023-07-13T10:03:29;98932.66;;;27.88;33.74
22743;BME280;11538;48.884;8.696;2023-07-13T10:06:15;98937.03;;;27.86;33.94
22743;BME280;11538;48.884;8.696;2023-07-13T10:08:44;98934.34;;;28.17;33.57
22743;BME280;11538;48.884;8.696;2023-07-13T10:11:27;98938.78;;;28.45;32.54
22743;BME280;11538;48.884;8.696;2023-07-13T10:14:01;98921.03;;;28.32;32.98
22743;BME280;11538;48.884;8.696;2023-07-13T10:16:33;98928.78;;;28.17;34.00
22743;BME280;11538;48.884;8.696;2023-07-13T10:19:29;98923.72;;;28.39;32.44
22743;BME280;11538;48.884;8.696;2023-07-13T10:22:27;98919.16;;;28.84;32.20
22743;BME280;11538;48.884;8.696;2023-07-13T10:24:54;98925.00;;;29.21;33.85
22743;BME280;11538;48.884;8.696;2023-07-13T10:27:35;98927.97;;;29.33;36.85
22743;BME280;11538;48.884;8.696;2023-07-13T10:30:17;98930.72;;;29.10;31.31
22743;BME280;11538;48.884;8.696;2023-07-13T10:32:47;98919.84;;;29.19;31.43
22743;BME280;11538;48.884;8.696;2023-07-13T10:35:18;98935.78;;;29.46;31.07
22743;BME280;11538;48.884;8.696;2023-07-13T10:38:01;98938.81;;;29.55;32.48
22743;BME280;11538;48.884;8.696;2023-07-13T10:43:40;98953.25;;;29.74;31.46
22743;BME280;11538;48.884;8.696;2023-07-13T10:46:14;98940.50;;;29.25;30.08
22743;BME280;11538;48.884;8.696;2023-07-13T10:48:47;98945.59;;;28.41;31.50
22743;BME280;11538;48.884;8.696;2023-07-13T10:51:18;98933.13;;;28.53;30.54
22743;BME280;11538;48.884;8.696;2023-07-13T10:56:48;98931.59;;;29.07;29.82
22743;BME280;11538;48.884;8.696;2023-07-13T10:59:27;98941.50;;;29.39;30.69
22743;BME280;11538;48.884;8.696;2023-07-13T11:02:13;98925.81;;;29.69;30.10
22743;BME280;11538;48.884;8.696;2023-07-13T11:04:48;98924.03;;;30.02;29.59
22743;BME280;11538;48.884;8.696;2023-07-13T11:07:30;98923.16;;;30.05;29.65
22743;BME280;11538;48.884;8.696;2023-07-13T11:10:04;98927.25;;;30.21;28.70
22743;BME280;11538;48.884;8.696;2023-07-13T11:15:28;98926.81;;;30.63;27.38
22743;BME280;11538;48.884;8.696;2023-07-13T11:17:56;98921.34;;;30.56;27.32
22743;BME280;11538;48.884;8.696;2023-07-13T11:20:38;98921.34;;;30.56;27.07
22743;BME280;11538;48.884;8.696;2023-07-13T11:23:26;98921.63;;;30.61;29.05
22743;BME280;11538;48.884;8.696;2023-07-13T11:25:55;98929.16;;;30.44;26.92
22743;BME280;11538;48.884;8.696;2023-07-13T11:28:30;98922.09;;;30.76;26.88
22743;BME280;11538;48.884;8.696;2023-07-13T11:33:49;98917.59;;;31.32;25.38
22743;BME280;11538;48.884;8.696;2023-07-13T11:36:21;98904.75;;;31.35;25.77
22743;BME280;11538;48.884;8.696;2023-07-13T11:39:02;98915.38;;;31.57;25.95
22743;BME280;11538;48.884;8.696;2023-07-13T11:41:57;98922.63;;;31.87;25.61
22743;BME280;11538;48.884;8.696;2023-07-13T11:44:32;98920.25;;;32.15;23.84
22743;BME280;11538;48.884;8.696;2023-07-13T11:47:10;98919.91;;;32.26;23.38
22743;BME280;11538;48.884;8.696;2023-07-13T11:49:44;98910.56;;;32.46;24.06
22743;BME280;11538;48.884;8.696;2023-07-13T11:52:18;98915.28;;;32.62;24.56
22743;BME280;11538;48.884;8.696;2023-07-13T11:54:54;98911.50;;;32.69;24.37
22743;BME280;11538;48.884;8.696;2023-07-13T11:57:39;98911.91;;;32.41;25.35
22743;BME280;11538;48.884;8.696;2023-07-13T12:00:17;98916.97;;;32.72;24.71
22743;BME280;11538;48.884;8.696;2023-07-13T12:02:49;98919.28;;;32.90;24.14
22743;BME280;11538;48.884;8.696;2023-07-13T12:05:19;98919.94;;;32.94;24.54
22743;BME280;11538;48.884;8.696;2023-07-13T12:07:51;98920.66;;;32.01;25.19
22743;BME280;11538;48.884;8.696;2023-07-13T12:10:28;98910.97;;;32.31;24.44
22743;BME280;11538;48.884;8.696;2023-07-13T12:13:05;98913.84;;;32.70;24.20
22743;BME280;11538;48.884;8.696;2023-07-13T12:15:40;98927.22;;;31.48;25.56
22743;BME280;11538;48.884;8.696;2023-07-13T12:18:23;98917.75;;;30.92;25.85
22743;BME280;11538;48.884;8.696;2023-07-13T12:20:58;98912.75;;;31.66;25.49
22743;BME280;11538;48.884;8.696;2023-07-13T12:23:34;98916.50;;;32.35;24.77
22743;BME280;11538;48.884;8.696;2023-07-13T12:26:05;98921.94;;;32.81;24.25
22743;BME280;11538;48.884;8.696;2023-07-13T12:28:37;98912.06;;;33.02;23.68
22743;BME280;11538;48.884;8.696;2023-07-13T12:34:16;98917.84;;;33.34;23.47
22743;BME280;11538;48.884;8.696;2023-07-13T12:36:59;98912.38;;;33.30;23.80
22743;BME280;11538;48.884;8.696;2023-07-13T12:39:36;98908.00;;;33.29;24.19
22743;BME280;11538;48.884;8.696;2023-07-13T12:42:25;98920.47;;;33.28;24.56
22743;BME280;11538;48.884;8.696;2023-07-13T12:47:50;98923.69;;;32.06;25.62
22743;BME280;11538;48.884;8.696;2023-07-13T12:50:24;98918.78;;;31.81;25.63
22743;BME280;11538;48.884;8.696;2023-07-13T12:53:03;98924.69;;;31.54;26.06
22743;BME280;11538;48.884;8.696;2023-07-13T12:55:45;98917.78;;;32.17;25.76
22743;BME280;11538;48.884;8.696;2023-07-13T12:58:28;98917.91;;;31.84;25.89
22743;BME280;11538;48.884;8.696;2023-07-13T13:01:02;98918.50;;;32.34;25.72
22743;BME280;11538;48.884;8.696;2023-07-13T13:03:44;98916.75;;;32.79;24.86
22743;BME280;11538;48.884;8.696;2023-07-13T13:08:42;98910.81;;;33.16;24.91
22743;BME280;11538;48.884;8.696;2023-07-13T13:11:13;98904.59;;;33.34;24.75
22743;BME280;11538;48.884;8.696;2023-07-13T13:13:43;98903.47;;;33.32;24.53
22743;BME280;11538;48.884;8.696;2023-07-13T13:18:55;98910.31;;;33.79;23.88
22743;BME280;11538;48.884;8.696;2023-07-13T13:21:24;98914.44;;;33.87;24.87
22743;BME280;11538;48.884;8.696;2023-07-13T13:23:53;98921.75;;;34.20;22.92
22743;BME280;11538;48.884;8.696;2023-07-13T13:26:22;98915.69;;;34.31;21.87
22743;BME280;11538;48.884;8.696;2023-07-13T13:28:49;98916.44;;;34.00;22.33
22743;BME280;11538;48.884;8.696;2023-07-13T13:31:17;98916.25;;;34.16;22.24
22743;BME280;11538;48.884;8.696;2023-07-13T13:33:46;98921.66;;;34.33;22.78
22743;BME280;11538;48.884;8.696;2023-07-13T13:36:22;98913.34;;;33.49;23.43
22743;BME280;11538;48.884;8.696;2023-07-13T13:38:50;98913.53;;;32.94;23.57
22743;BME280;11538;48.884;8.696;2023-07-13T13:41:17;98912.25;;;33.47;23.60
22743;BME280;11538;48.884;8.696;2023-07-13T13:43:44;98910.63;;;33.59;23.21
22743;BME280;11538;48.884;8.696;2023-07-13T13:46:20;98901.06;;;32.95;24.07
22743;BME280;11538;48.884;8.696;2023-07-13T13:48:48;98900.25;;;33.07;23.95
22743;BME280;11538;48.884;8.696;2023-07-13T13:51:21;98904.47;;;33.51;24.34